Terminal Aerodrome Forecast
Issued by NWS St Louis, MO

Home | Current Version | Previous Version | Text Only | Print | Product List | Glossary On
Versions: 1 2 3 4 5 6 7 8 9 10 11 12 13 14 15 16 17 18 19 20 21 22 23 24 25 26 27 28
000
FTUS43 KLSX 291700
TAFSTL
TAF
KSTL 291723Z 2918/3024 20010KT P6SM SCT040
     FM292100 19008KT P6SM VCTS SCT050CB
     FM300200 19007KT 6SM -SHRA VCTS SCT030CB BKN070
     FM300700 19008KT P6SM VCSH BKN060
     FM301200 20009KT P6SM SCT060
     FM301700 22010KT P6SM VCTS SCT040CB=

USA.gov is the U.S. government's official web portal to all federal, state and local government web resources and services.